createdAt,value
2018-04-11T00:01:14.833Z,75.92
2018-04-11T00:03:45.396Z,77.20
2018-04-11T00:06:11.980Z,77.73
2018-04-11T00:08:38.617Z,76.55
2018-04-11T00:11:05.165Z,74.36
2018-04-11T00:13:35.393Z,75.53
2018-04-11T00:16:02.030Z,78.09
2018-04-11T00:18:28.573Z,79.30
2018-04-11T00:20:55.205Z,76.78
2018-04-11T00:23:25.409Z,75.76
2018-04-11T00:25:52.005Z,75.06
2018-04-11T00:28:18.635Z,76.94
2018-04-11T00:30:45.219Z,75.60
2018-04-11T00:33:11.812Z,73.93
2018-04-11T00:35:38.429Z,72.96
2018-04-11T00:38:05.033Z,74.83
2018-04-11T00:40:31.743Z,74.17
2018-04-11T00:43:02.337Z,74.44
2018-04-11T00:45:28.996Z,73.60
2018-04-11T00:47:55.550Z,72.65
2018-04-11T00:50:22.236Z,73.21
2018-04-11T00:53:04.434Z,72.36
2018-04-11T00:55:31.031Z,72.01
2018-04-11T00:57:57.588Z,72.54
2018-04-11T01:00:24.130Z,72.54
2018-04-11T01:02:52.051Z,72.24
2018-04-11T01:05:18.546Z,72.14
2018-04-11T01:07:45.282Z,71.97
2018-04-11T01:10:12.176Z,71.65
2018-04-11T01:12:43.955Z,74.35
2018-04-11T01:15:10.596Z,75.05
2018-04-11T01:17:37.372Z,77.46
2018-04-11T01:20:03.999Z,78.78
2018-04-11T01:22:33.816Z,77.70
2018-04-11T01:25:00.436Z,77.57
2018-04-11T01:27:27.033Z,79.61
2018-04-11T01:29:53.627Z,77.89
2018-04-11T01:32:30.703Z,77.34
2018-04-11T01:34:57.326Z,76.32
2018-04-11T01:37:23.989Z,75.05
2018-04-11T01:39:50.675Z,76.97
2018-04-11T01:42:20.592Z,78.31
2018-04-11T01:44:47.315Z,76.38
2018-04-11T01:47:13.945Z,78.40
2018-04-11T01:49:40.667Z,79.62
2018-04-11T01:52:08.372Z,80.06
2018-04-11T01:54:34.948Z,77.73
2018-04-11T01:57:02.028Z,76.07
2018-04-11T01:59:28.763Z,76.72
2018-04-11T02:02:03.060Z,75.28
2018-04-11T02:04:29.764Z,75.67
2018-04-11T02:06:56.353Z,75.63
2018-04-11T02:09:23.107Z,75.56
2018-04-11T02:12:04.175Z,76.57
2018-04-11T02:14:30.911Z,74.93
2018-04-11T02:16:58.075Z,75.55
2018-04-11T02:19:24.671Z,76.15
2018-04-11T02:21:58.261Z,75.20
2018-04-11T02:24:24.891Z,76.11
2018-04-11T02:26:51.517Z,77.68
2018-04-11T02:29:18.201Z,78.00
2018-04-11T02:31:48.608Z,78.56
2018-04-11T02:34:15.275Z,79.79
2018-04-11T02:36:41.967Z,80.13
2018-04-11T02:39:09.428Z,81.07
2018-04-11T02:41:48.923Z,81.88
2018-04-11T02:44:15.493Z,79.66
2018-04-11T02:46:42.104Z,78.60
2018-04-11T02:49:08.692Z,78.73
2018-04-11T02:51:39.705Z,78.72
2018-04-11T02:54:06.389Z,78.87
2018-04-11T02:56:33.040Z,76.81
2018-04-11T02:58:59.575Z,78.44
2018-04-11T03:01:29.572Z,81.06
2018-04-11T03:03:56.099Z,81.01
2018-04-11T03:06:22.725Z,81.17
2018-04-11T03:08:49.369Z,82.42
2018-04-11T03:11:20.463Z,82.88
2018-04-11T03:13:47.060Z,83.19
2018-04-11T03:16:13.697Z,82.81
2018-04-11T03:18:40.384Z,80.47
2018-04-11T03:21:11.075Z,79.78
2018-04-11T03:23:37.636Z,80.28
2018-04-11T03:26:04.274Z,79.53
2018-04-11T03:28:30.926Z,80.14
2018-04-11T03:30:58.663Z,79.16
2018-04-11T03:33:25.171Z,80.97
2018-04-11T03:35:51.759Z,81.15
2018-04-11T03:38:18.390Z,81.04
2018-04-11T03:40:45.899Z,80.70
2018-04-11T03:43:12.519Z,81.37
2018-04-11T03:45:39.163Z,80.91
2018-04-11T03:48:05.784Z,80.55
2018-04-11T03:50:32.472Z,79.08
2018-04-11T03:53:00.444Z,80.63
2018-04-11T03:55:27.212Z,81.12
2018-04-11T03:57:54.230Z,81.77
2018-04-11T04:00:21.020Z,82.46
2018-04-11T04:02:48.741Z,83.02
2018-04-11T04:05:15.468Z,83.30
2018-04-11T04:07:42.144Z,83.21
2018-04-11T04:10:08.749Z,83.05
2018-04-11T04:12:36.517Z,83.24
2018-04-11T04:15:14.964Z,83.52
2018-04-11T04:17:53.499Z,83.22
2018-04-11T04:20:32.128Z,83.25
2018-04-11T04:23:02.607Z,82.00
2018-04-11T04:25:29.211Z,80.70
2018-04-11T04:27:55.875Z,80.50
2018-04-11T04:30:22.443Z,80.17
2018-04-11T04:32:50.264Z,79.17
2018-04-11T04:35:16.951Z,80.20
2018-04-11T04:37:43.511Z,80.65
2018-04-11T04:40:10.120Z,80.53
2018-04-11T04:42:40.589Z,79.58
2018-04-11T04:45:07.217Z,80.73
2018-04-11T04:47:33.789Z,80.04
2018-04-11T04:50:00.402Z,80.39
2018-04-11T04:52:28.013Z,80.47
2018-04-11T04:54:54.712Z,78.69
2018-04-11T04:57:21.450Z,78.21
2018-04-11T04:59:48.020Z,81.05
2018-04-11T05:02:20.027Z,80.89
2018-04-11T05:04:46.727Z,79.02
2018-04-11T05:07:13.408Z,78.00
2018-04-11T05:09:40.045Z,76.98
2018-04-11T05:12:07.704Z,76.67
2018-04-11T05:14:34.415Z,76.21
2018-04-11T05:17:01.056Z,78.80
2018-04-11T05:19:27.622Z,80.12
2018-04-11T05:21:56.015Z,78.08
2018-04-11T05:24:22.658Z,78.40
2018-04-11T05:26:49.317Z,77.76
2018-04-11T05:29:16.036Z,78.05
2018-04-11T05:31:42.887Z,78.05
2018-04-11T05:34:09.595Z,76.62
2018-04-11T05:36:36.264Z,76.82
2018-04-11T05:39:06.635Z,76.19
2018-04-11T05:41:38.513Z,75.19
2018-04-11T05:44:05.227Z,76.40
2018-04-11T05:46:32.061Z,76.70
2018-04-11T05:48:58.856Z,74.70
2018-04-11T05:51:28.539Z,73.97
2018-04-11T05:53:55.124Z,74.97
2018-04-11T05:56:22.082Z,75.64
2018-04-11T05:58:48.849Z,74.75
2018-04-11T06:01:18.619Z,76.57
2018-04-11T06:03:45.895Z,77.43
2018-04-11T06:06:12.523Z,75.67
2018-04-11T06:08:39.044Z,73.94
2018-04-11T06:11:08.605Z,74.44
2018-04-11T06:13:35.190Z,74.88
2018-04-11T06:16:01.879Z,74.36
2018-04-11T06:18:28.512Z,73.05
2018-04-11T06:20:58.607Z,72.12
2018-04-11T06:23:25.347Z,71.64
2018-04-11T06:25:52.000Z,73.85
2018-04-11T06:28:18.561Z,73.23
2018-04-11T06:30:48.605Z,74.06
2018-04-11T06:33:15.259Z,72.04
2018-04-11T06:35:41.842Z,72.66
2018-04-11T06:38:08.440Z,73.08
2018-04-11T06:40:42.350Z,71.41
2018-04-11T06:43:09.064Z,72.45
2018-04-11T06:45:35.828Z,71.71
2018-04-11T06:48:02.465Z,70.40
2018-04-11T06:50:36.763Z,69.59
2018-04-11T06:53:03.380Z,70.78
2018-04-11T06:55:30.168Z,71.66
2018-04-11T06:57:56.652Z,70.72
2018-04-11T07:00:33.660Z,69.41
2018-04-11T07:03:00.258Z,69.62
2018-04-11T07:05:26.871Z,67.40
2018-04-11T07:07:53.500Z,68.19
2018-04-11T07:10:20.298Z,68.70
2018-04-11T07:12:46.907Z,67.55
2018-04-11T07:15:13.492Z,68.78
2018-04-11T07:17:40.180Z,68.94
2018-04-11T07:20:06.846Z,67.63
2018-04-11T07:22:34.512Z,67.52
2018-04-11T07:25:01.235Z,68.56
2018-04-11T07:27:27.812Z,67.23
2018-04-11T07:29:54.499Z,67.61
2018-04-11T07:32:28.407Z,66.90
2018-04-11T07:34:55.128Z,65.78
2018-04-11T07:37:21.728Z,65.64
2018-04-11T07:39:48.432Z,65.35
2018-04-11T07:42:18.526Z,62.29
2018-04-11T07:44:45.175Z,63.29
2018-04-11T07:47:11.796Z,62.49
2018-04-11T07:49:38.399Z,61.73
2018-04-11T07:52:09.635Z,62.27
2018-04-11T07:54:36.363Z,60.76
2018-04-11T07:57:02.944Z,60.93
2018-04-11T07:59:29.736Z,60.64
2018-04-11T08:01:59.567Z,58.74
2018-04-11T08:04:26.262Z,57.17
2018-04-11T08:06:52.972Z,59.77
2018-04-11T08:09:19.667Z,58.91
2018-04-11T08:11:49.487Z,59.51
2018-04-11T08:14:16.233Z,59.15
2018-04-11T08:16:42.877Z,58.42
2018-04-11T08:19:09.566Z,58.98
2018-04-11T08:21:47.320Z,57.26
2018-04-11T08:24:13.896Z,57.25
2018-04-11T08:26:40.585Z,55.16
2018-04-11T08:29:07.232Z,55.34
2018-04-11T08:31:39.753Z,55.00
2018-04-11T08:34:06.503Z,56.25
2018-04-11T08:36:33.156Z,56.06
2018-04-11T08:38:59.876Z,55.80
2018-04-11T08:41:26.655Z,56.90
2018-04-11T08:43:53.236Z,56.34
2018-04-11T08:46:19.830Z,56.67
2018-04-11T08:48:46.468Z,59.00
2018-04-11T08:51:14.275Z,57.38
2018-04-11T08:53:40.953Z,56.73
2018-04-11T08:56:07.603Z,55.59
2018-04-11T08:58:34.292Z,54.95
2018-04-11T09:01:08.393Z,55.47
2018-04-11T09:03:35.081Z,54.37
2018-04-11T09:06:01.767Z,52.70
2018-04-11T09:08:28.488Z,50.88
2018-04-11T09:10:58.704Z,51.45
2018-04-11T09:13:25.446Z,51.96
2018-04-11T09:15:52.662Z,50.53
2018-04-11T09:18:19.439Z,53.54
2018-04-11T09:20:59.424Z,53.57
2018-04-11T09:23:26.110Z,54.28
2018-04-11T09:25:52.738Z,54.45
2018-04-11T09:28:19.352Z,53.62
2018-04-11T09:30:49.781Z,52.12
2018-04-11T09:33:16.421Z,53.32
2018-04-11T09:35:43.019Z,51.16
2018-04-11T09:38:09.695Z,49.78
2018-04-11T09:40:43.820Z,50.82
2018-04-11T09:43:10.531Z,50.10
2018-04-11T09:45:37.291Z,53.02
2018-04-11T09:48:03.940Z,51.31
2018-04-11T09:50:31.940Z,52.31
2018-04-11T09:52:58.659Z,51.00
2018-04-11T09:55:25.334Z,49.20
2018-04-11T09:57:52.023Z,50.26
2018-04-11T10:00:22.540Z,52.21
2018-04-11T10:02:55.203Z,50.79
2018-04-11T10:05:21.939Z,49.72
2018-04-11T10:07:48.732Z,51.80
2018-04-11T10:10:16.095Z,51.63
2018-04-11T10:12:42.716Z,49.31
2018-04-11T10:15:09.301Z,50.41
2018-04-11T10:17:35.961Z,47.83
2018-04-11T10:20:02.562Z,48.61
2018-04-11T10:22:29.216Z,50.13
2018-04-11T10:24:55.970Z,51.85
2018-04-11T10:27:22.484Z,51.74
2018-04-11T10:29:52.876Z,52.66
2018-04-11T10:32:19.527Z,52.06
2018-04-11T10:34:46.097Z,52.56
2018-04-11T10:37:12.695Z,53.12
2018-04-11T10:39:39.407Z,54.44
2018-04-11T10:42:07.245Z,54.75
2018-04-11T10:44:33.921Z,54.80
2018-04-11T10:47:00.565Z,53.75
2018-04-11T10:49:27.287Z,55.23
2018-04-11T10:52:04.720Z,55.69
2018-04-11T10:54:31.524Z,53.80
2018-04-11T10:56:58.095Z,55.02
2018-04-11T10:59:24.749Z,54.45
2018-04-11T11:01:54.640Z,52.22
2018-04-11T11:04:22.067Z,52.56
2018-04-11T11:06:48.768Z,50.75
2018-04-11T11:09:15.452Z,51.52
2018-04-11T11:11:46.102Z,52.85
2018-04-11T11:14:12.860Z,53.51
2018-04-11T11:16:39.298Z,52.27
2018-04-11T11:19:06.036Z,52.76
2018-04-11T11:21:36.560Z,52.89
2018-04-11T11:24:03.061Z,52.39
2018-04-11T11:26:29.764Z,53.36
2018-04-11T11:28:56.523Z,54.27
2018-04-11T11:31:28.137Z,52.03
2018-04-11T11:33:55.016Z,54.63
2018-04-11T11:36:21.755Z,53.00
2018-04-11T11:38:48.434Z,54.30
2018-04-11T11:41:19.555Z,54.33
2018-04-11T11:43:46.226Z,54.43
2018-04-11T11:46:12.944Z,55.71
2018-04-11T11:48:39.548Z,54.95
2018-04-11T11:51:12.280Z,54.89
2018-04-11T11:53:39.022Z,55.00
2018-04-11T11:56:05.536Z,55.77
2018-04-11T11:58:32.140Z,54.16
2018-04-11T12:01:01.860Z,56.64
2018-04-11T12:03:28.452Z,53.28
2018-04-11T12:05:55.087Z,53.98
2018-04-11T12:08:21.719Z,55.71
2018-04-11T12:10:55.896Z,55.80
2018-04-11T12:13:22.656Z,56.34
2018-04-11T12:15:49.371Z,54.66
2018-04-11T12:18:16.029Z,52.50
2018-04-11T12:20:46.456Z,54.75
2018-04-11T12:23:13.133Z,55.51
2018-04-11T12:25:39.873Z,53.79
2018-04-11T12:28:06.483Z,55.90
2018-04-11T12:30:40.227Z,55.41
2018-04-11T12:33:06.944Z,55.55
2018-04-11T12:35:33.681Z,55.05
2018-04-11T12:38:00.400Z,55.59
2018-04-11T12:40:32.079Z,56.46
2018-04-11T12:42:58.734Z,55.69
2018-04-11T12:45:25.383Z,58.36
2018-04-11T12:47:51.971Z,58.31
2018-04-11T12:50:31.838Z,56.73
2018-04-11T12:52:58.596Z,56.93
2018-04-11T12:55:25.194Z,57.33
2018-04-11T12:57:51.861Z,55.95
2018-04-11T13:00:29.111Z,56.70
2018-04-11T13:02:55.879Z,56.04
2018-04-11T13:05:22.781Z,57.76
2018-04-11T13:07:49.546Z,58.20
2018-04-11T13:10:21.336Z,59.10
2018-04-11T13:12:48.094Z,58.06
2018-04-11T13:15:14.788Z,59.22
2018-04-11T13:17:41.445Z,58.58
2018-04-11T13:20:11.611Z,59.42
2018-04-11T13:22:38.307Z,57.67
2018-04-11T13:27:37.142Z,59.26
2018-04-11T13:30:08.597Z,59.49
2018-04-11T13:32:35.220Z,58.29
2018-04-11T13:35:01.842Z,56.95
2018-04-11T13:37:28.493Z,56.58
2018-04-11T13:40:00.007Z,56.98
2018-04-11T13:42:26.695Z,56.41
2018-04-11T13:44:53.402Z,57.90
2018-04-11T13:47:20.163Z,57.03
2018-04-11T13:49:57.649Z,57.39
2018-04-11T13:52:24.237Z,57.04
2018-04-11T13:54:50.729Z,55.46
2018-04-11T13:57:17.434Z,58.45
2018-04-11T14:00:04.740Z,58.19
2018-04-11T14:02:31.552Z,58.71
2018-04-11T14:04:58.270Z,60.89
2018-04-11T14:07:24.968Z,62.09
2018-04-11T14:09:52.801Z,62.74
2018-04-11T14:12:19.511Z,62.10
2018-04-11T14:14:46.065Z,62.93
2018-04-11T14:17:12.810Z,63.67
2018-04-11T14:19:49.547Z,64.62
2018-04-11T14:22:16.148Z,64.92
2018-04-11T14:24:42.829Z,66.00
2018-04-11T14:27:09.389Z,65.81
2018-04-11T14:29:39.514Z,66.89
2018-04-11T14:32:06.216Z,66.54
2018-04-11T14:34:32.805Z,67.36
2018-04-11T14:36:59.545Z,67.05
2018-04-11T14:39:30.964Z,67.79
2018-04-11T14:41:57.602Z,68.53
2018-04-11T14:44:24.269Z,69.67
2018-04-11T14:46:50.913Z,69.65
2018-04-11T14:49:21.318Z,70.25
2018-04-11T14:51:47.857Z,70.04
2018-04-11T14:54:14.628Z,71.04
2018-04-11T14:56:41.242Z,71.66
2018-04-11T14:59:07.954Z,69.47
2018-04-11T15:01:34.561Z,71.63
2018-04-11T15:04:01.266Z,70.80
2018-04-11T15:06:27.973Z,69.99
2018-04-11T15:08:54.601Z,73.07
2018-04-11T15:11:24.758Z,72.77
2018-04-11T15:13:51.304Z,71.64
2018-04-11T15:16:17.904Z,73.55
2018-04-11T15:18:44.499Z,72.84
2018-04-11T15:21:15.102Z,72.76
2018-04-11T15:23:41.830Z,73.54
2018-04-11T15:26:08.539Z,72.45
2018-04-11T15:28:35.170Z,75.35
2018-04-11T15:31:07.986Z,73.97
2018-04-11T15:33:34.658Z,73.89
2018-04-11T15:36:01.279Z,73.02
2018-04-11T15:38:28.016Z,74.26
2018-04-11T15:40:58.175Z,73.31
2018-04-11T15:43:24.753Z,73.50
2018-04-11T15:45:51.455Z,76.00
2018-04-11T15:48:17.995Z,75.50
2018-04-11T15:50:51.998Z,74.94
2018-04-11T15:53:18.509Z,75.48
2018-04-11T15:55:45.190Z,74.59
2018-04-11T15:58:11.897Z,75.64
2018-04-11T16:00:42.495Z,72.79
2018-04-11T16:03:09.173Z,72.68
2018-04-11T16:05:35.751Z,76.15
2018-04-11T16:08:02.542Z,74.64
2018-04-11T16:10:33.491Z,74.32
2018-04-11T16:13:00.208Z,75.28
2018-04-11T16:15:26.945Z,75.70
2018-04-11T16:17:53.641Z,76.52
2018-04-11T16:20:34.935Z,76.45
2018-04-11T16:23:01.893Z,76.62
2018-04-11T16:25:28.550Z,76.74
2018-04-11T16:27:55.254Z,76.70
2018-04-11T16:30:28.828Z,76.86
2018-04-11T16:32:55.521Z,76.20
2018-04-11T16:35:22.201Z,73.95
2018-04-11T16:37:48.767Z,75.33
2018-04-11T16:40:19.014Z,77.62
2018-04-11T16:42:45.730Z,77.72
2018-04-11T16:45:13.326Z,76.43
2018-04-11T16:47:40.092Z,76.86
2018-04-11T16:50:11.219Z,77.40
2018-04-11T16:52:38.145Z,77.65
2018-04-11T16:55:04.710Z,77.36
2018-04-11T16:57:31.343Z,76.38
2018-04-11T17:00:08.139Z,77.46
2018-04-11T17:02:34.720Z,77.63
2018-04-11T17:05:01.443Z,77.15
2018-04-11T17:07:28.409Z,77.74
2018-04-11T17:10:00.481Z,76.78
2018-04-11T17:12:27.200Z,75.43
2018-04-11T17:14:54.155Z,76.89
2018-04-11T17:17:20.984Z,78.25
2018-04-11T17:19:58.268Z,78.97
2018-04-11T17:22:37.887Z,78.64
2018-04-11T17:25:16.437Z,78.18
2018-04-11T17:27:55.635Z,77.75
2018-04-11T17:30:37.619Z,78.45
2018-04-11T17:33:04.222Z,76.19
2018-04-11T17:35:30.922Z,75.54
2018-04-11T17:37:57.508Z,77.01
2018-04-11T17:40:28.039Z,77.08
2018-04-11T17:42:54.645Z,77.49
2018-04-11T17:45:21.882Z,78.55
2018-04-11T17:47:48.478Z,77.27
2018-04-11T17:50:15.317Z,77.80
2018-04-11T17:52:42.843Z,77.11
2018-04-11T17:55:09.551Z,75.79
2018-04-11T17:57:37.165Z,75.06
2018-04-11T18:00:08.326Z,75.42
2018-04-11T18:02:34.936Z,75.73
2018-04-11T18:05:01.630Z,76.62
2018-04-11T18:07:28.251Z,76.25
2018-04-11T18:10:01.162Z,77.07
2018-04-11T18:12:27.705Z,79.10
2018-04-11T18:14:55.294Z,79.09
2018-04-11T18:17:21.959Z,79.22
2018-04-11T18:19:54.803Z,78.50
2018-04-11T18:22:21.471Z,77.86
2018-04-11T18:24:48.108Z,77.45
2018-04-11T18:27:14.769Z,79.08
2018-04-11T18:29:49.707Z,79.25
2018-04-11T18:32:16.258Z,78.22
2018-04-11T18:34:42.936Z,78.75
2018-04-11T18:37:09.688Z,78.35
2018-04-11T18:39:40.000Z,78.92
2018-04-11T18:42:06.513Z,78.36
2018-04-11T18:44:33.130Z,78.64
2018-04-11T18:46:59.811Z,78.80
2018-04-11T18:49:30.140Z,78.46
2018-04-11T18:51:56.731Z,78.80
2018-04-11T18:54:23.596Z,78.10
2018-04-11T18:56:50.244Z,79.23
2018-04-11T18:59:19.930Z,79.79
2018-04-11T19:01:46.561Z,78.86
2018-04-11T19:04:13.237Z,78.92
2018-04-11T19:06:39.961Z,78.28
2018-04-11T19:09:08.601Z,78.94
2018-04-11T19:11:35.253Z,78.85
2018-04-11T19:14:01.860Z,79.30
2018-04-11T19:16:28.516Z,78.43
2018-04-11T19:19:00.479Z,78.92
2018-04-11T19:21:27.055Z,79.13
2018-04-11T19:23:54.726Z,79.00
2018-04-11T19:26:22.247Z,79.21
2018-04-11T19:28:50.020Z,79.03
2018-04-11T19:31:20.460Z,76.93
2018-04-11T19:33:46.980Z,77.12
2018-04-11T19:36:14.588Z,77.58
2018-04-11T19:38:44.574Z,78.61
2018-04-11T19:41:11.160Z,78.32
2018-04-11T19:43:37.875Z,78.72
2018-04-11T19:46:04.606Z,78.34
2018-04-11T19:48:35.648Z,78.38
2018-04-11T19:51:02.293Z,79.34
2018-04-11T19:53:28.982Z,78.86
2018-04-11T19:55:55.659Z,79.26
2018-04-11T19:58:22.366Z,79.07
2018-04-11T20:00:48.953Z,79.23
2018-04-11T20:03:21.582Z,79.43
2018-04-11T20:05:48.314Z,79.89
2018-04-11T20:08:14.863Z,80.04
2018-04-11T20:10:44.624Z,80.03
2018-04-11T20:13:11.330Z,80.52
2018-04-11T20:15:38.153Z,81.03
2018-04-11T20:18:04.810Z,80.93
2018-04-11T20:20:34.883Z,78.71
2018-04-11T20:23:01.464Z,77.00
2018-04-11T20:25:28.147Z,76.84
2018-04-11T20:27:54.965Z,76.56
2018-04-11T20:30:27.284Z,76.24
2018-04-11T20:32:53.892Z,77.23
2018-04-11T20:35:20.555Z,77.83
2018-04-11T20:37:47.188Z,77.60
2018-04-11T20:40:18.328Z,77.91
2018-04-11T20:42:45.140Z,77.17
2018-04-11T20:45:11.747Z,77.93
2018-04-11T20:47:38.444Z,78.44
2018-04-11T20:50:06.078Z,78.51
2018-04-11T20:52:32.797Z,77.89
2018-04-11T20:54:59.368Z,79.30
2018-04-11T20:57:26.115Z,78.33
2018-04-11T20:59:53.861Z,77.87
2018-04-11T21:02:20.533Z,79.12
2018-04-11T21:04:47.110Z,79.89
2018-04-11T21:07:13.800Z,79.49
2018-04-11T21:09:43.917Z,78.06
2018-04-11T21:12:10.603Z,76.69
2018-04-11T21:14:37.287Z,76.53
2018-04-11T21:17:03.888Z,77.80
2018-04-11T21:19:37.074Z,77.86
2018-04-11T21:22:03.702Z,79.65
2018-04-11T21:24:30.302Z,79.03
2018-04-11T21:26:57.018Z,79.54
2018-04-11T21:29:27.451Z,78.05
2018-04-11T21:31:54.129Z,79.09
2018-04-11T21:34:20.788Z,77.87
2018-04-11T21:36:47.365Z,78.31
2018-04-11T21:39:14.915Z,79.27
2018-04-11T21:41:41.593Z,78.49
2018-04-11T21:44:08.254Z,80.46
2018-04-11T21:46:34.970Z,80.85
2018-04-11T21:49:02.597Z,78.97
2018-04-11T21:51:28.979Z,79.03
2018-04-11T21:53:55.486Z,79.28
2018-04-11T21:56:22.197Z,80.24
2018-04-11T21:58:53.167Z,81.38
2018-04-11T22:01:19.744Z,80.42
2018-04-11T22:03:50.138Z,81.13
2018-04-11T22:06:16.637Z,81.34
2018-04-11T22:08:47.005Z,80.33
2018-04-11T22:11:13.634Z,79.25
2018-04-11T22:13:40.143Z,78.47
2018-04-11T22:16:06.789Z,78.28
2018-04-11T22:18:37.618Z,78.13
2018-04-11T22:21:04.199Z,79.71
2018-04-11T22:23:31.785Z,80.08
2018-04-11T22:25:58.457Z,78.23
2018-04-11T22:28:28.953Z,78.70
2018-04-11T22:30:56.025Z,79.30
2018-04-11T22:33:22.714Z,80.28
2018-04-11T22:35:49.285Z,80.14
2018-04-11T22:38:16.042Z,80.00
2018-04-11T22:40:42.663Z,79.57
2018-04-11T22:43:09.350Z,80.18
2018-04-11T22:45:35.998Z,80.78
2018-04-11T22:48:06.113Z,81.07
2018-04-11T22:50:32.849Z,79.80
2018-04-11T22:52:59.498Z,79.27
2018-04-11T22:55:26.065Z,78.22
2018-04-11T22:57:52.699Z,79.23
2018-04-11T23:00:19.371Z,79.95
2018-04-11T23:02:46.024Z,78.73
2018-04-11T23:05:12.520Z,78.42
2018-04-11T23:07:39.287Z,79.90
2018-04-11T23:10:10.105Z,78.53
2018-04-11T23:12:36.847Z,78.10
2018-04-11T23:15:03.392Z,79.11
2018-04-11T23:17:30.092Z,78.50
2018-04-11T23:20:01.538Z,79.26
2018-04-11T23:22:28.336Z,79.23
2018-04-11T23:24:54.985Z,80.77
2018-04-11T23:27:22.063Z,80.40
2018-04-11T23:29:48.759Z,79.17
2018-04-11T23:32:15.319Z,78.96
2018-04-11T23:34:41.989Z,78.56
2018-04-11T23:37:08.626Z,79.05
2018-04-11T23:39:35.537Z,78.37
2018-04-11T23:42:02.341Z,78.32
2018-04-11T23:44:28.862Z,78.78
2018-04-11T23:46:55.595Z,79.06
2018-04-11T23:49:25.924Z,78.97
2018-04-11T23:51:52.690Z,77.63
2018-04-11T23:54:19.570Z,76.76
2018-04-11T23:56:46.334Z,76.76
2018-04-11T23:59:14.939Z,79.19
